Time;durP1;ratioP1;P1;durP2;ratioP2;P2;SDS_P1;SDS_P2;PMS_P1;PMS_P2;Temp;Humidity;BMP_temperature;BMP_pressure;BME280_temperature;BME280_humidity;BME280_pressure;Samples;Min_cycle;Max_cycle;Signal;HPM_P1;HPM_P2
2023/09/04 00:02:17;;;;;;;;;6.50;6.00;;;;;23.63;66.12;101625.94;6184650;23;52118;-81
2023/09/04 00:04:42;;;;;;;;;7.75;6.25;;;;;23.60;66.19;101628.94;6185189;23;45431;-84
2023/09/04 00:07:08;;;;;;;;;5.75;5.75;;;;;23.59;66.15;101624.53;6186216;23;45362;-85
2023/09/04 00:09:34;;;;;;;;;5.00;5.00;;;;;23.46;66.76;101612.06;6185680;23;45251;-86
2023/09/04 00:11:59;;;;;;;;;7.00;5.25;;;;;23.53;66.92;101625.91;6187121;22;45383;-81
2023/09/04 00:14:25;;;;;;;;;6.50;5.25;;;;;23.49;66.82;101630.78;6190274;23;45317;-82
2023/09/04 00:16:50;;;;;;;;;7.00;7.00;;;;;23.47;66.85;101630.06;6191690;23;45272;-82
2023/09/04 00:19:17;;;;;;;;;9.00;7.75;;;;;23.46;67.08;101628.38;6187020;23;45182;-81
2023/09/04 00:21:42;;;;;;;;;6.00;6.00;;;;;23.29;66.95;101601.94;6187052;23;45249;-83
2023/09/04 00:24:07;;;;;;;;;6.50;6.50;;;;;23.41;67.17;101622.50;6185178;22;46208;-82
2023/09/04 00:26:33;;;;;;;;;6.25;6.25;;;;;23.34;67.38;101609.66;6189576;22;45516;-82
2023/09/04 00:28:58;;;;;;;;;5.50;5.50;;;;;23.35;67.00;101617.66;6190181;22;45182;-79
2023/09/04 00:31:23;;;;;;;;;5.25;5.25;;;;;23.29;67.78;101607.34;6193648;23;45185;-83
2023/09/04 00:33:49;;;;;;;;;4.75;4.75;;;;;23.18;67.53;101599.38;6191234;22;45203;-80
2023/09/04 00:36:14;;;;;;;;;5.25;4.75;;;;;23.18;67.98;101599.38;6192496;23;62959;-80
2023/09/04 00:38:39;;;;;;;;;7.25;7.25;;;;;23.01;67.47;101581.94;6193031;23;48056;-79
2023/09/04 00:41:05;;;;;;;;;5.00;5.00;;;;;23.14;68.11;101603.38;6192368;22;45141;-82
2023/09/04 00:43:38;;;;;;;;;6.00;6.00;;;;;23.13;68.00;101604.38;6191102;23;60068;-83
2023/09/04 00:46:05;;;;;;;;;6.25;6.25;;;;;23.11;67.90;101609.94;6193074;23;45153;-78
2023/09/04 00:48:33;;;;;;;;;5.00;5.00;;;;;23.09;68.14;101605.66;6196304;22;45260;-80
2023/09/04 00:51:00;;;;;;;;;6.00;6.00;;;;;23.02;68.74;101604.50;6193880;22;45382;-82
2023/09/04 00:53:27;;;;;;;;;7.50;7.50;;;;;23.00;68.86;101601.09;6188754;23;48020;-81
2023/09/04 00:55:52;;;;;;;;;6.25;6.25;;;;;22.95;69.07;101604.22;6189270;22;45305;-82
2023/09/04 00:58:18;;;;;;;;;6.50;6.50;;;;;22.90;69.47;101599.22;6186372;23;45167;-80
2023/09/04 01:00:44;;;;;;;;;7.75;6.00;;;;;22.86;69.54;101595.06;6185742;23;45118;-84
2023/09/04 01:03:12;;;;;;;;;6.25;6.25;;;;;22.83;69.11;101598.09;6184858;23;45994;-81
2023/09/04 01:05:37;;;;;;;;;8.00;6.75;;;;;22.80;69.29;101595.63;6186764;22;45351;-84
2023/09/04 01:08:03;;;;;;;;;5.25;5.25;;;;;22.78;68.70;101591.31;6187490;23;45367;-81
2023/09/04 01:10:45;;;;;;;;;4.75;4.75;;;;;22.78;69.41;101599.44;6187765;22;45372;-83
2023/09/04 01:13:37;;;;;;;;;7.00;7.00;;;;;22.71;69.32;101599.16;6184841;23;46010;-87
2023/09/04 01:16:05;;;;;;;;;6.00;4.75;;;;;22.61;69.73;101588.28;6185274;23;45153;-85
2023/09/04 01:18:31;;;;;;;;;8.00;8.00;;;;;22.55;69.54;101572.59;6184829;22;45370;-84
2023/09/04 01:21:01;;;;;;;;;6.50;6.50;;;;;22.60;69.16;101583.88;6185508;22;45250;-81
2023/09/04 01:23:26;;;;;;;;;7.67;7.00;;;;;22.67;69.11;101595.88;6182732;23;45438;-85
2023/09/04 01:26:04;;;;;;;;;8.00;6.75;;;;;22.63;69.60;101588.16;6187798;23;62912;-84
2023/09/04 01:28:54;;;;;;;;;7.50;6.00;;;;;22.63;68.78;101588.16;6184362;22;45126;-82
2023/09/04 01:31:50;;;;;;;;;5.75;5.00;;;;;22.64;69.38;101581.72;6184180;23;45248;-84
2023/09/04 01:34:23;;;;;;;;;5.25;5.25;;;;;22.54;69.76;101572.75;6183432;22;46403;-84
2023/09/04 01:36:52;;;;;;;;;6.25;6.25;;;;;22.52;69.68;101569.28;6183742;22;45309;-88
2023/09/04 01:39:19;;;;;;;;;6.75;6.75;;;;;22.47;69.61;101564.31;6183553;22;45186;-89
2023/09/04 01:41:45;;;;;;;;;8.50;7.00;;;;;22.54;69.76;101575.47;6183602;22;45208;-86
2023/09/04 01:44:10;;;;;;;;;6.75;6.25;;;;;22.34;70.02;101551.00;6181988;23;50731;-90
2023/09/04 01:46:35;;;;;;;;;6.50;6.50;;;;;22.48;70.43;101563.31;6184554;23;45174;-88
2023/09/04 01:49:01;;;;;;;;;7.75;7.75;;;;;22.37;70.43;101560.69;6184257;23;62337;-88
2023/09/04 01:51:26;;;;;;;;;6.00;5.00;;;;;22.41;70.38;101572.16;6183946;22;59342;-88
2023/09/04 01:53:51;;;;;;;;;6.75;6.75;;;;;22.37;70.57;101569.69;6183920;22;46602;-88
2023/09/04 01:56:16;;;;;;;;;9.00;7.00;;;;;22.30;70.47;101560.41;6185706;22;45272;-87
2023/09/04 01:58:42;;;;;;;;;7.00;7.00;;;;;22.26;70.39;101552.69;6182414;23;56875;-89
2023/09/04 02:01:07;;;;;;;;;7.00;7.00;;;;;22.23;70.44;101548.41;6183575;23;55526;-83
2023/09/04 02:03:33;;;;;;;;;7.75;7.00;;;;;22.25;70.27;101551.81;6184113;23;46292;-87
2023/09/04 02:05:58;;;;;;;;;9.00;9.00;;;;;22.28;70.69;101554.28;6185021;23;45317;-88
2023/09/04 02:08:23;;;;;;;;;9.00;9.00;;;;;22.26;70.65;101549.97;6184830;23;45248;-87
2023/09/04 02:10:49;;;;;;;;;9.00;7.33;;;;;22.22;70.99;101538.56;6187671;23;46897;-84
2023/09/04 02:13:15;;;;;;;;;7.00;7.00;;;;;22.17;70.77;101537.28;6185676;23;45239;-86
2023/09/04 02:15:40;;;;;;;;;6.67;6.67;;;;;22.06;71.19;101524.69;6194939;22;45368;-84
2023/09/04 02:18:06;;;;;;;;;9.00;8.00;;;;;22.06;71.15;101530.09;6187224;23;45286;-87
2023/09/04 02:20:31;;;;;;;;;6.25;6.25;;;;;21.94;71.23;101512.22;6185466;23;45562;-84
2023/09/04 02:22:57;;;;;;;;;9.33;9.33;;;;;22.06;71.28;101527.41;6185679;23;45436;-88
2023/09/04 02:25:24;;;;;;;;;14.50;10.00;;;;;22.03;71.65;101530.34;6188095;22;45326;-87
2023/09/04 02:27:50;;;;;;;;;9.67;8.67;;;;;21.98;71.79;101527.19;6186572;23;45334;-90
2023/09/04 02:30:15;;;;;;;;;6.67;6.67;;;;;21.92;71.81;101528.59;6185800;22;45487;-84
2023/09/04 02:32:41;;;;;;;;;9.00;8.00;;;;;21.86;72.11;101529.13;6185878;22;45288;-87
2023/09/04 02:35:07;;;;;;;;;7.25;7.25;;;;;21.84;71.81;101535.69;6186065;23;45155;-91
2023/09/04 02:37:32;;;;;;;;;10.00;10.00;;;;;21.76;71.66;101522.84;6187031;22;45221;-88
2023/09/04 02:39:57;;;;;;;;;8.67;7.00;;;;;21.77;71.85;101525.41;6186688;23;45173;-87
2023/09/04 02:42:23;;;;;;;;;9.00;8.00;;;;;21.64;71.88;101497.69;6186606;23;45359;-86
2023/09/04 02:44:48;;;;;;;;;10.33;8.33;;;;;21.72;72.51;101514.09;6186436;22;45271;-85
2023/09/04 02:47:13;;;;;;;;;9.00;9.00;;;;;21.68;72.07;101515.38;6184755;23;57713;-84
2023/09/04 02:49:39;;;;;;;;;8.67;8.67;;;;;21.66;72.35;101505.69;6186062;23;45390;-82
2023/09/04 02:52:04;;;;;;;;;9.67;9.67;;;;;21.62;72.72;101507.81;6183595;23;66975;-87
2023/09/04 02:54:29;;;;;;;;;10.67;9.00;;;;;21.53;72.68;101494.22;6185159;23;45389;-87
2023/09/04 02:56:55;;;;;;;;;11.00;11.00;;;;;21.56;72.11;101505.63;6184595;23;45179;-84
2023/09/04 02:59:20;;;;;;;;;16.67;16.67;;;;;21.52;72.23;101493.38;6184258;23;48977;-82
2023/09/04 03:01:49;;;;;;;;;9.00;9.00;;;;;21.44;72.33;101479.63;6184097;23;45960;-84
2023/09/04 03:04:14;;;;;;;;;9.33;9.33;;;;;21.38;72.73;101494.59;6186831;22;45282;-81
2023/09/04 03:06:40;;;;;;;;;10.00;10.00;;;;;21.45;72.68;101503.84;6188643;23;45182;-82
2023/09/04 03:09:05;;;;;;;;;10.33;10.33;;;;;21.46;72.55;101499.31;6185229;23;45237;-84
2023/09/04 03:11:31;;;;;;;;;10.67;9.33;;;;;21.46;72.40;101510.13;6183655;23;46100;-80
2023/09/04 03:13:56;;;;;;;;;12.33;12.33;;;;;21.25;72.43;101479.53;6183810;23;45244;-82
2023/09/04 03:16:22;;;;;;;;;7.00;7.00;;;;;21.36;72.25;101501.97;6184312;23;45103;-87
2023/09/04 03:18:47;;;;;;;;;10.67;9.00;;;;;21.43;72.44;101511.25;6184577;22;45426;-84
2023/09/04 03:21:13;;;;;;;;;6.00;6.00;;;;;21.32;72.60;101502.34;6184004;22;45248;-81
2023/09/04 03:23:38;;;;;;;;;12.67;9.67;;;;;21.29;72.36;101494.50;6183965;22;45372;-80
2023/09/04 03:26:04;;;;;;;;;9.00;6.67;;;;;21.40;72.31;101510.69;6181469;23;55495;-82
2023/09/04 03:28:29;;;;;;;;;10.67;10.67;;;;;21.40;72.27;101502.56;6185040;23;45232;-79
2023/09/04 03:30:54;;;;;;;;;7.33;7.00;;;;;21.34;72.70;101495.81;6184346;23;46685;-82
2023/09/04 03:33:20;;;;;;;;;10.00;9.00;;;;;21.32;71.92;101503.22;6184341;22;45300;-83
2023/09/04 03:35:45;;;;;;;;;8.00;8.00;;;;;21.32;72.61;101488.84;6184633;23;45322;-86
2023/09/04 03:38:10;;;;;;;;;8.00;7.00;;;;;21.31;72.63;101490.69;6184811;23;45360;-87
2023/09/04 03:40:36;;;;;;;;;6.67;6.67;;;;;21.29;72.75;101494.50;6190031;23;45343;-81
2023/09/04 03:43:01;;;;;;;;;9.33;9.00;;;;;21.25;72.50;101498.44;6185789;22;45305;-81
2023/09/04 03:45:34;;;;;;;;;7.00;7.00;;;;;21.12;72.91;101479.72;6184744;23;45502;-84
2023/09/04 03:48:00;;;;;;;;;9.33;9.33;;;;;21.12;72.56;101475.16;6186170;23;45437;-83
2023/09/04 03:50:25;;;;;;;;;10.67;9.67;;;;;21.17;72.89;101489.13;6185648;22;45424;-83
2023/09/04 03:52:51;;;;;;;;;9.67;9.67;;;;;21.11;72.75;101489.69;6185675;23;45376;-80
2023/09/04 03:55:16;;;;;;;;;9.67;9.33;;;;;21.17;72.78;101499.97;6185478;23;45278;-81
2023/09/04 03:57:43;;;;;;;;;7.00;7.00;;;;;21.16;72.91;101509.06;6187038;22;45629;-85
2023/09/04 04:00:14;;;;;;;;;11.00;11.00;;;;;21.05;72.99;101489.34;6186350;23;47610;-81
2023/09/04 04:02:44;;;;;;;;;9.33;8.67;;;;;21.10;73.15;101504.19;6191756;23;45365;-83
2023/09/04 04:05:11;;;;;;;;;10.00;10.00;;;;;21.08;73.27;101503.44;6189717;22;45185;-81
2023/09/04 04:07:37;;;;;;;;;9.00;9.00;;;;;20.89;73.38;101473.56;6186421;23;45375;-86
2023/09/04 04:10:04;;;;;;;;;9.33;9.33;;;;;21.02;73.02;101495.88;6185593;22;45253;-83
2023/09/04 04:12:31;;;;;;;;;10.00;10.00;;;;;20.96;73.34;101488.28;6185046;23;45417;-81
2023/09/04 04:14:57;;;;;;;;;9.00;9.00;;;;;20.92;73.43;101494.94;6184099;22;45429;-82
2023/09/04 04:17:23;;;;;;;;;10.67;8.00;;;;;20.95;73.02;101496.53;6186920;22;45460;-84
2023/09/04 04:19:50;;;;;;;;;9.67;9.67;;;;;20.87;72.99;101492.63;6186901;22;46172;-84
2023/09/04 04:22:15;;;;;;;;;10.00;8.00;;;;;20.85;73.00;101485.66;6182771;23;45149;-80
2023/09/04 04:24:41;;;;;;;;;11.00;10.00;;;;;20.89;73.17;101495.22;6184459;22;45185;-80
2023/09/04 04:27:08;;;;;;;;;7.00;7.00;;;;;20.85;73.24;101489.22;6184745;23;45426;-80
2023/09/04 04:29:34;;;;;;;;;8.33;8.00;;;;;20.82;73.50;101483.19;6184525;23;45996;-84
2023/09/04 04:31:59;;;;;;;;;6.00;6.00;;;;;20.74;73.50;101481.16;6183933;23;45293;-81
2023/09/04 04:34:24;;;;;;;;;9.00;8.33;;;;;20.77;73.20;101490.84;6183406;22;45385;-80
2023/09/04 04:36:55;;;;;;;;;10.33;9.33;;;;;20.66;73.22;101477.38;6183738;22;45296;-80
2023/09/04 04:39:20;;;;;;;;;9.00;9.00;;;;;20.71;73.73;101485.97;6182988;22;45258;-81
2023/09/04 04:41:46;;;;;;;;;12.00;12.00;;;;;20.67;74.09;101488.06;6183173;23;45288;-81
2023/09/04 04:44:11;;;;;;;;;14.00;11.00;;;;;20.64;74.02;101488.31;6183113;23;45221;-83
2023/09/04 04:46:36;;;;;;;;;7.33;7.33;;;;;20.55;74.09;101475.56;6182304;23;45470;-82
2023/09/04 04:49:02;;;;;;;;;11.00;10.33;;;;;20.61;73.95;101485.88;6186154;22;56742;-84
2023/09/04 04:51:27;;;;;;;;;13.00;10.00;;;;;20.57;74.37;101489.81;6186643;22;45199;-81
2023/09/04 04:53:53;;;;;;;;;13.00;13.00;;;;;20.55;74.29;101489.94;6187085;23;45844;-84
2023/09/04 04:56:18;;;;;;;;;10.33;9.00;;;;;20.54;74.16;101496.31;6187717;23;45261;-82
2023/09/04 04:58:43;;;;;;;;;12.67;11.33;;;;;20.52;74.07;101492.91;6186062;23;45350;-85
2023/09/04 05:01:09;;;;;;;;;15.67;12.67;;;;;20.49;74.42;101482.34;6185127;22;45315;-84
2023/09/04 05:03:34;;;;;;;;;11.33;11.33;;;;;20.47;74.28;101489.75;6186214;22;45290;-86
2023/09/04 05:05:59;;;;;;;;;14.33;14.00;;;;;20.47;74.08;101487.03;6185344;23;45264;-82
2023/09/04 05:08:25;;;;;;;;;13.00;13.00;;;;;20.41;74.38;101483.94;6184463;22;45292;-86
2023/09/04 05:11:00;;;;;;;;;11.67;11.67;;;;;20.41;74.27;101490.19;6182522;23;45777;-79
2023/09/04 05:13:26;;;;;;;;;14.00;12.00;;;;;20.40;74.39;101483.09;6185725;22;44778;-83
2023/09/04 05:15:51;;;;;;;;;13.33;13.33;;;;;20.36;74.16;101487.03;6189757;22;44907;-87
2023/09/04 05:18:16;;;;;;;;;14.00;12.67;;;;;20.42;73.99;101494.66;6191333;23;68146;-82
2023/09/04 05:20:42;;;;;;;;;16.67;15.00;;;;;20.36;74.02;101487.03;6191365;23;55905;-84
2023/09/04 05:23:07;;;;;;;;;13.67;12.33;;;;;20.39;74.24;101494.88;6195043;22;45300;-85
2023/09/04 05:25:32;;;;;;;;;13.67;13.67;;;;;20.35;73.86;101498.81;6191767;22;45260;-82
2023/09/04 05:27:57;;;;;;;;;14.00;14.00;;;;;20.41;73.96;101497.44;6188269;23;45248;-82
2023/09/04 05:30:23;;;;;;;;;15.00;13.00;;;;;20.41;73.90;101501.00;6184095;23;67454;-83
2023/09/04 05:32:52;;;;;;;;;15.67;15.67;;;;;20.42;73.71;101501.91;6186709;23;45272;-84
2023/09/04 05:35:17;;;;;;;;;14.67;11.67;;;;;20.43;74.01;101500.91;6188032;22;45463;-86
2023/09/04 05:37:43;;;;;;;;;12.00;12.00;;;;;20.41;73.81;101501.00;6186789;23;46208;-85
2023/09/04 05:40:08;;;;;;;;;11.67;11.67;;;;;20.35;74.29;101484.47;6189962;22;48061;-82
2023/09/04 05:42:34;;;;;;;;;14.67;14.67;;;;;20.26;73.65;101464.47;6188728;23;45377;-80
2023/09/04 05:44:59;;;;;;;;;14.33;11.67;;;;;20.30;73.69;101482.13;6192014;23;44800;-80
2023/09/04 05:47:25;;;;;;;;;17.67;14.33;;;;;20.38;74.25;101495.00;6188145;22;45866;-81
2023/09/04 05:49:50;;;;;;;;;13.67;12.00;;;;;20.38;73.61;101508.53;6187536;23;57498;-78
2023/09/04 05:52:15;;;;;;;;;12.33;12.33;;;;;20.37;73.61;101498.69;6185952;23;45442;-82
2023/09/04 05:54:41;;;;;;;;;12.33;11.67;;;;;20.38;73.25;101501.28;6189826;23;45308;-78
2023/09/04 05:57:06;;;;;;;;;15.00;14.00;;;;;20.41;73.11;101506.41;6193462;23;45327;-81
2023/09/04 05:59:32;;;;;;;;;13.33;13.33;;;;;20.33;73.16;101496.25;6189694;23;45367;-86
2023/09/04 06:01:57;;;;;;;;;12.00;12.00;;;;;20.43;72.96;101509.88;6189032;23;45726;-79
2023/09/04 06:04:22;;;;;;;;;14.00;14.00;;;;;20.45;72.43;101497.13;6188362;23;59675;-88
2023/09/04 06:06:48;;;;;;;;;9.67;9.67;;;;;20.54;72.19;101493.63;6188375;22;46198;-84
2023/09/04 06:09:14;;;;;;;;;17.33;12.67;;;;;20.66;72.28;101513.38;6188973;23;45743;-80
2023/09/04 06:11:39;;;;;;;;;14.33;12.33;;;;;20.76;71.72;101497.25;6184803;23;45262;-84
2023/09/04 06:14:05;;;;;;;;;11.33;11.33;;;;;21.13;70.38;101495.81;6185540;23;45239;-86
2023/09/04 06:16:30;;;;;;;;;11.67;11.67;;;;;21.38;68.96;101496.44;6185619;22;45288;-82
2023/09/04 06:18:55;;;;;;;;;14.00;12.67;;;;;21.34;69.24;101511.19;6182414;23;57142;-80
2023/09/04 06:21:21;;;;;;;;;11.33;10.33;;;;;21.28;68.94;101487.38;6182073;22;45286;-79
2023/09/04 06:23:46;;;;;;;;;15.33;14.67;;;;;21.25;68.35;101479.53;6183518;23;45589;-79
2023/09/04 06:26:12;;;;;;;;;12.67;11.00;;;;;21.64;68.00;101511.25;6179037;23;46604;-81
2023/09/04 06:28:38;;;;;;;;;10.33;10.33;;;;;21.60;67.42;101488.13;6179625;22;45368;-79
2023/09/04 06:31:04;;;;;;;;;10.67;10.67;;;;;22.09;65.93;101513.56;6180690;22;45415;-81
2023/09/04 06:33:33;;;;;;;;;14.00;12.67;;;;;22.57;63.90;101500.13;6180686;23;45789;-81
2023/09/04 06:35:59;;;;;;;;;12.67;11.67;;;;;22.47;63.99;101511.94;6179544;23;45655;-78
2023/09/04 06:38:24;;;;;;;;;9.33;9.00;;;;;22.26;64.71;101510.19;6179527;22;45371;-77
2023/09/04 06:40:57;;;;;;;;;12.33;9.67;;;;;22.12;65.31;101513.28;6178736;22;45364;-77
2023/09/04 06:43:23;;;;;;;;;14.67;13.00;;;;;21.98;65.41;101500.09;6181956;23;45423;-77
2023/09/04 06:45:48;;;;;;;;;14.00;11.67;;;;;21.89;65.58;101501.78;6179330;23;48251;-78
2023/09/04 06:48:13;;;;;;;;;14.67;13.00;;;;;21.73;65.62;101472.50;6181159;22;45304;-76
2023/09/04 06:50:39;;;;;;;;;11.00;10.67;;;;;21.97;65.43;101504.66;6182136;22;45711;-78
2023/09/04 06:53:04;;;;;;;;;13.67;13.67;;;;;22.02;65.17;101524.09;6181609;22;45311;-77
2023/09/04 06:55:29;;;;;;;;;10.67;10.67;;;;;22.03;65.11;101500.56;6181018;23;45343;-79
2023/09/04 06:57:56;;;;;;;;;12.00;11.00;;;;;21.91;64.94;101480.00;6180703;23;45270;-78
2023/09/04 07:00:21;;;;;;;;;11.00;11.00;;;;;21.61;64.32;101427.56;6182096;23;45344;-82
2023/09/04 07:02:47;;;;;;;;;11.33;11.33;;;;;22.28;64.23;101512.78;6182144;22;45414;-77
2023/09/04 07:05:12;;;;;;;;;13.33;12.33;;;;;22.27;63.38;101465.84;6181763;23;45403;-77
2023/09/04 07:07:37;;;;;;;;;13.00;13.00;;;;;22.39;63.08;101504.50;6179186;23;45289;-78
2023/09/04 07:10:07;;;;;;;;;11.67;11.67;;;;;22.23;63.50;101494.22;6181198;22;45288;-78
2023/09/04 07:12:35;;;;;;;;;11.67;11.67;;;;;22.46;62.82;101478.56;6180698;22;45371;-78
2023/09/04 07:15:01;;;;;;;;;12.67;12.67;;;;;22.70;62.07;101498.97;6180122;22;45335;-75
2023/09/04 07:17:26;;;;;;;;;12.67;12.67;;;;;22.56;62.48;101511.09;6178393;22;45324;-75
2023/09/04 07:19:52;;;;;;;;;11.33;11.33;;;;;22.44;63.01;101477.84;6180588;23;45439;-79
2023/09/04 07:22:18;;;;;;;;;14.00;13.00;;;;;22.42;63.05;101481.69;6181320;22;45310;-78
2023/09/04 07:24:43;;;;;;;;;14.67;13.67;;;;;22.34;62.91;101485.09;6178856;23;47233;-78
2023/09/04 07:27:10;;;;;;;;;10.33;10.33;;;;;22.35;62.87;101497.66;6181418;23;45378;-77
2023/09/04 07:29:35;;;;;;;;;13.00;13.00;;;;;22.24;62.86;101476.94;6181098;22;45431;-78
2023/09/04 07:32:01;;;;;;;;;12.25;12.25;;;;;21.99;63.07;101458.47;6180924;23;45593;-78
2023/09/04 07:34:27;;;;;;;;;12.25;10.50;;;;;22.25;62.79;101475.09;6180657;22;45380;-79
2023/09/04 07:36:52;;;;;;;;;12.00;9.67;;;;;22.46;62.72;101493.97;6181747;23;52992;-79
2023/09/04 07:39:18;;;;;;;;;14.00;13.00;;;;;22.24;62.63;101449.84;6183161;23;45462;-79
2023/09/04 07:41:43;;;;;;;;;15.67;12.33;;;;;22.56;62.34;101492.13;6184079;22;45394;-80
2023/09/04 07:44:09;;;;;;;;;12.00;12.00;;;;;22.23;62.43;101440.03;6184236;23;45357;-82
2023/09/04 07:46:34;;;;;;;;;13.67;12.33;;;;;22.54;62.06;101494.13;6183460;23;45269;-80
2023/09/04 07:49:00;;;;;;;;;13.67;10.00;;;;;22.23;62.23;101445.44;6184403;23;45300;-79
2023/09/04 07:51:25;;;;;;;;;15.67;12.00;;;;;22.41;62.52;101467.31;6183191;22;47825;-88
2023/09/04 07:53:50;;;;;;;;;12.00;12.00;;;;;22.11;62.03;101419.47;6182514;22;46538;-86
2023/09/04 07:56:16;;;;;;;;;11.50;10.75;;;;;22.39;62.57;101466.56;6185086;23;45608;-88
2023/09/04 07:58:42;;;;;;;;;13.67;13.67;;;;;22.66;61.94;101491.13;6184911;23;45366;-80
2023/09/04 08:01:13;;;;;;;;;12.33;10.67;;;;;22.67;62.00;101486.56;6180511;23;45507;-82
2023/09/04 08:03:40;;;;;;;;;12.33;10.33;;;;;22.50;61.59;101441.19;6187628;22;46269;-87
2023/09/04 08:06:06;;;;;;;;;11.33;10.33;;;;;22.64;61.34;101466.00;6187562;22;45302;-84
2023/09/04 08:08:31;;;;;;;;;12.33;12.33;;;;;22.81;61.77;101490.72;6187524;23;45332;-82
2023/09/04 08:10:57;;;;;;;;;11.00;11.00;;;;;22.87;61.25;101496.44;6189255;22;45335;-81
2023/09/04 08:13:22;;;;;;;;;12.00;9.00;;;;;22.87;61.33;101477.44;6186871;23;45280;-90
2023/09/04 08:15:48;;;;;;;;;8.00;8.00;;;;;22.82;60.98;101468.88;6187117;23;45351;-86
2023/09/04 08:18:13;;;;;;;;;11.00;9.00;;;;;22.97;60.83;101482.88;6183453;23;45322;-89
2023/09/04 08:20:39;;;;;;;;;9.25;9.25;;;;;23.00;61.25;101479.00;6185965;22;45592;-86
2023/09/04 08:23:12;;;;;;;;;9.75;9.75;;;;;23.05;61.08;101484.84;6197209;22;45238;-88
2023/09/04 08:25:37;;;;;;;;;13.00;12.00;;;;;23.01;60.69;101472.56;6192490;23;45329;-86
2023/09/04 08:28:03;;;;;;;;;12.50;9.50;;;;;23.12;60.88;101464.28;6193742;23;44771;-89
2023/09/04 08:30:29;;;;;;;;;13.25;12.25;;;;;23.24;60.68;101479.38;6212572;22;45269;-85
2023/09/04 08:32:55;;;;;;;;;11.00;10.50;;;;;23.27;60.40;101479.09;6187029;22;46188;-86
2023/09/04 08:35:20;;;;;;;;;8.00;8.00;;;;;23.04;60.19;101442.44;6193553;23;45383;-85
2023/09/04 08:37:46;;;;;;;;;9.00;7.33;;;;;23.30;60.17;101473.34;6199403;22;45091;-90
2023/09/04 08:40:12;;;;;;;;;9.00;9.00;;;;;23.27;60.48;101457.38;6197339;22;45232;-88
2023/09/04 08:42:39;;;;;;;;;11.67;11.33;;;;;23.19;59.82;101427.41;6192145;22;46935;-88
2023/09/04 08:45:08;;;;;;;;;10.00;9.00;;;;;23.42;60.01;101455.91;6186791;23;45573;-83
2023/09/04 08:47:40;;;;;;;;;8.50;8.50;;;;;23.49;60.08;101457.03;6187119;22;45181;-84
2023/09/04 08:50:09;;;;;;;;;15.00;10.75;;;;;23.62;59.46;101472.16;6190522;22;45256;-79
2023/09/04 08:52:39;;;;;;;;;9.50;9.50;;;;;23.39;59.67;101406.47;6189589;22;45928;-79
2023/09/04 08:55:05;;;;;;;;;10.25;9.25;;;;;23.83;59.60;101456.50;6212289;22;45324;-82
2023/09/04 08:57:32;;;;;;;;;11.25;10.75;;;;;23.78;59.21;101427.03;6185604;22;45331;-83
2023/09/04 08:59:58;;;;;;;;;10.25;10.25;;;;;23.93;58.39;101453.69;6186941;22;45320;-78
2023/09/04 09:02:23;;;;;;;;;8.50;8.50;;;;;23.85;58.55;101435.47;6181652;23;45398;-80
2023/09/04 09:04:50;;;;;;;;;9.00;9.00;;;;;23.91;58.67;101440.28;6185779;23;45323;-78
2023/09/04 09:07:16;;;;;;;;;6.25;6.25;;;;;23.92;58.73;101431.09;6184766;23;45679;-78
2023/09/04 09:09:49;;;;;;;;;9.00;9.00;;;;;24.06;58.17;101438.75;6205843;22;45477;-78
2023/09/04 09:12:15;;;;;;;;;9.75;9.75;;;;;24.09;58.07;101438.47;6185020;22;45425;-79
2023/09/04 09:14:40;;;;;;;;;13.50;11.75;;;;;24.10;58.63;101434.72;6184885;23;45314;-84
2023/09/04 09:17:08;;;;;;;;;9.00;9.00;;;;;24.25;58.06;101455.94;6185847;23;45331;-82
2023/09/04 09:19:35;;;;;;;;;9.50;9.50;;;;;24.24;58.15;101454.22;6185432;22;45363;-80
2023/09/04 09:22:17;;;;;;;;;12.50;10.00;;;;;24.30;58.45;101448.19;6183317;23;45302;-79
2023/09/04 09:24:56;;;;;;;;;10.00;10.00;;;;;24.34;57.51;101441.44;6190306;22;45863;-79
2023/09/04 09:27:23;;;;;;;;;10.75;10.75;;;;;24.37;57.60;101447.44;6187197;23;45315;-82
2023/09/04 09:29:49;;;;;;;;;13.00;9.75;;;;;24.36;57.61;101425.84;6185122;22;45268;-83
2023/09/04 09:32:16;;;;;;;;;11.00;9.75;;;;;24.52;58.06;101439.59;6182250;23;45915;-87
2023/09/04 09:34:47;;;;;;;;;9.25;7.75;;;;;24.56;57.38;101430.09;6183659;23;45433;-79
2023/09/04 09:37:13;;;;;;;;;12.50;11.00;;;;;24.61;57.35;101435.06;6185808;23;45471;-87
2023/09/04 09:39:38;;;;;;;;;8.00;8.00;;;;;24.61;57.65;101433.22;6186811;22;45447;-78
2023/09/04 09:42:04;;;;;;;;;10.75;10.00;;;;;24.62;57.33;101423.19;6186065;22;59031;-84
2023/09/04 09:44:33;;;;;;;;;8.75;8.50;;;;;24.68;57.17;101425.28;6185994;23;45467;-82
2023/09/04 09:46:59;;;;;;;;;11.00;9.50;;;;;24.69;57.08;101425.09;6186579;22;45615;-80
2023/09/04 09:49:25;;;;;;;;;10.25;8.75;;;;;24.74;56.87;101412.88;6184413;22;45475;-79
2023/09/04 09:51:53;;;;;;;;;10.00;10.00;;;;;24.77;57.02;101405.28;6183564;23;47936;-80
2023/09/04 09:54:46;;;;;;;;;9.00;9.00;;;;;24.92;56.33;101408.28;6188593;23;45292;-78
2023/09/04 09:57:13;;;;;;;;;9.75;8.75;;;;;24.98;57.08;101394.03;6184136;23;45266;-81
2023/09/04 09:59:50;;;;;;;;;4.75;4.00;;;;;25.04;56.47;101390.72;6190089;23;45417;-82
2023/09/04 10:02:19;;;;;;;;;7.25;7.25;;;;;25.14;56.53;101391.47;6159599;23;45464;-83
2023/09/04 10:04:44;;;;;;;;;8.60;8.00;;;;;25.17;56.51;101393.84;6186074;22;45284;-78
2023/09/04 10:07:16;;;;;;;;;13.00;11.00;;;;;25.27;55.98;101382.84;6189592;23;45275;-83
2023/09/04 10:09:44;;;;;;;;;8.00;8.00;;;;;25.21;55.96;101370.72;6187129;23;45261;-79
2023/09/04 10:12:35;;;;;;;;;9.25;8.00;;;;;25.17;55.60;101344.00;6211104;22;45582;-83
2023/09/04 10:15:01;;;;;;;;;11.00;11.00;;;;;25.41;55.40;101376.78;6185827;22;45453;-81
2023/09/04 10:17:36;;;;;;;;;13.00;11.25;;;;;25.40;54.98;101360.63;6185904;23;45321;-85
2023/09/04 10:20:04;;;;;;;;;14.75;12.00;;;;;25.50;55.62;101364.03;6188801;22;45354;-86
2023/09/04 10:22:46;;;;;;;;;9.75;9.00;;;;;25.55;55.00;101372.59;6189950;22;45352;-80
2023/09/04 10:25:28;;;;;;;;;8.00;6.25;;;;;25.56;54.57;101364.25;6192936;22;45397;-80
2023/09/04 10:28:46;;;;;;;;;9.75;8.75;;;;;25.65;55.05;101356.09;6188941;22;45205;-80
2023/09/04 10:31:12;;;;;;;;;9.00;8.75;;;;;25.72;54.61;101346.28;6181267;22;45425;-82
2023/09/04 10:33:38;;;;;;;;;9.50;9.50;;;;;25.59;54.25;101316.75;6185037;22;46082;-81
2023/09/04 10:36:04;;;;;;;;;50.33;39.33;;;;;25.95;54.51;101357.41;6186835;22;45400;-81
2023/09/04 10:38:30;;;;;;;;;10.50;10.00;;;;;25.99;53.65;101342.41;6188127;23;45358;-82
2023/09/04 10:40:56;;;;;;;;;10.75;9.25;;;;;26.03;53.95;101338.31;6190964;23;45307;-79
2023/09/04 10:43:22;;;;;;;;;8.75;7.25;;;;;26.16;53.33;101328.63;6191143;23;45379;-83
2023/09/04 10:46:04;;;;;;;;;16.00;16.00;;;;;26.35;52.51;101327.44;6193032;23;45193;-81
2023/09/04 10:48:46;;;;;;;;;5.75;5.75;;;;;26.60;52.62;101333.78;6192657;22;45327;-80
2023/09/04 10:51:31;;;;;;;;;14.75;12.00;;;;;26.86;51.79;101328.09;6191735;22;45392;-81
2023/09/04 10:54:02;;;;;;;;;9.50;9.50;;;;;27.04;51.58;101322.44;6179912;23;45829;-79
2023/09/04 10:56:28;;;;;;;;;9.00;9.00;;;;;27.31;50.54;101321.13;6187068;23;45288;-80
2023/09/04 10:59:04;;;;;;;;;10.25;10.25;;;;;27.62;49.76;101319.28;6186522;22;45237;-80
2023/09/04 11:01:37;;;;;;;;;10.00;10.00;;;;;28.02;49.54;101306.41;6188726;22;45423;-89
2023/09/04 11:04:05;;;;;;;;;10.75;7.50;;;;;28.42;49.01;101301.66;6193455;22;46211;-85
2023/09/04 11:06:36;;;;;;;;;7.00;7.00;;;;;28.71;47.45;101290.75;6189503;22;45335;-84
2023/09/04 11:09:03;;;;;;;;;12.40;10.60;;;;;29.11;46.15;101291.34;6189220;22;45244;-86
2023/09/04 11:11:31;;;;;;;;;9.60;7.20;;;;;29.43;46.68;101290.09;6188940;22;45205;-84
2023/09/04 11:14:01;;;;;;;;;7.60;7.60;;;;;29.76;45.38;101290.47;6186143;22;45543;-80
2023/09/04 11:16:31;;;;;;;;;7.40;6.40;;;;;30.14;43.51;101295.75;6184957;22;45336;-80
2023/09/04 11:19:02;;;;;;;;;9.00;9.00;;;;;30.45;42.34;101277.00;6185999;23;45335;-84